Norman Park, Georgia
Current Conditions -  °F | °C
As of 3:35 PM on Monday 26 Jan 2015 (Local Time) from KMGR Reporting Station
Overcast Overcast  
Wind Chill: 52°   Ceiling: 3900
Heat Index: 52°   Visibility: 10mi
Dew Point: 37°   Wind: 15mph
Humidity: 58%   Direction: 310°NW
Pressure: 29.88"   Gusts: 20mph
Location:  31.27°N, 83.69°W
Report Text: KMGR 262035Z AUTO 31013G17KT 10SM BKN039 OVC044 11/03 A2988 RMK AO2
Loading
Personal Weather Stations






























Interactive Weather Map New forecast layout! Learn more

10-Day Weather Forecast

Advertisements
Track Severe Weather on mobile